| time (UTC) | temp C | wind direction | speed KPH | gust KPH | rain 1hr cm | rain 24hr cm | rain mn cm | humidity % | barometer mb |
| 20260507101010 | 8 | 290 | 8.0 | 20.9 | 0.00 | 0.69 | 0.08 | 85 | 1005.7 |
| 20260507100003 | 8 | 283 | 4.8 | 16.1 | 0.00 | 0.69 | 0.08 | 86 | 1005.5 |
| 20260507095403 | 8 | 264 | 8.0 | 17.7 | 0.00 | 0.69 | 0.08 | 86 | 1005.8 |
| 20260507094610 | 8 | 262 | 6.4 | 17.7 | 0.00 | 0.69 | 0.08 | 86 | 1005.9 |
| 20260507093709 | 8 | 255 | 9.7 | 19.3 | 0.00 | 0.69 | 0.08 | 86 | 1005.7 |
| 20260507092704 | 8 | 260 | 4.8 | 12.9 | 0.00 | 0.69 | 0.08 | 85 | 1005.7 |
| 20260507091909 | 8 | 257 | 8.0 | 16.1 | 0.00 | 0.69 | 0.08 | 83 | 1005.9 |
| 20260507090903 | 8 | 267 | 9.7 | 25.7 | 0.00 | 0.69 | 0.08 | 82 | 1006.1 |
| 20260507090110 | 8 | 267 | 9.7 | 25.7 | 0.00 | 0.69 | 0.08 | 81 | 1005.9 |
| 20260507085403 | 8 | 269 | 11.3 | 25.7 | 0.03 | 0.69 | 0.08 | 81 | 1005.6 |
| 20260507084504 | 8 | 273 | 9.7 | 20.9 | 0.03 | 0.69 | 0.08 | 80 | 1005.4 |
| 20260507083604 | 8 | 276 | 11.3 | 22.5 | 0.03 | 0.69 | 0.08 | 80 | 1005.6 |
| 20260507082809 | 9 | 287 | 11.3 | 22.5 | 0.03 | 0.69 | 0.08 | 81 | 1005.1 |
| 20260507081804 | 9 | 279 | 9.7 | 24.1 | 0.03 | 0.69 | 0.08 | 84 | 1005.4 |
| 20260507080903 | 9 | 273 | 9.7 | 17.7 | 0.03 | 0.69 | 0.08 | 85 | 1005.4 |
| 20260507080003 | 10 | 276 | 9.7 | 20.9 | 0.03 | 0.69 | 0.08 | 85 | 1005.7 |
| 20260507075404 | 10 | 282 | 8.0 | 17.7 | 0.00 | 0.66 | 0.05 | 85 | 1005.5 |
| 20260507074504 | 10 | 278 | 8.0 | 29.0 | 0.00 | 0.66 | 0.05 | 84 | 1005.8 |
| 20260507073604 | 10 | 279 | 6.4 | 17.7 | 0.00 | 0.66 | 0.05 | 85 | 1005.4 |
| 20260507072704 | 10 | 271 | 8.0 | 16.1 | 0.00 | 0.66 | 0.05 | 85 | 1005.2 |
| 20260507071910 | 10 | 270 | 9.7 | 19.3 | 0.00 | 0.66 | 0.05 | 85 | 1005.1 |
| 20260507071010 | 10 | 270 | 9.7 | 19.3 | 0.00 | 0.66 | 0.05 | 85 | 1005.2 |
| 20260507070008 | 10 | 265 | 9.7 | 19.3 | 0.00 | 0.66 | 0.05 | 85 | 1004.9 |
| 20260507065404 | 10 | 263 | 9.7 | 19.3 | 0.00 | 0.66 | 0.05 | 85 | 1004.8 |
| 20260507064503 | 10 | 265 | 6.4 | 14.5 | 0.00 | 0.66 | 0.05 | 84 | 1004.9 |
| 20260507063709 | 10 | 273 | 8.0 | 16.1 | 0.00 | 0.66 | 0.05 | 83 | 1004.9 |
| 20260507062704 | 10 | 268 | 8.0 | 16.1 | 0.00 | 0.66 | 0.05 | 82 | 1004.6 |
| 20260507061909 | 10 | 271 | 9.7 | 17.7 | 0.00 | 0.66 | 0.05 | 82 | 1004.6 |
| 20260507060903 | 10 | 274 | 11.3 | 29.0 | 0.00 | 0.66 | 0.05 | 82 | 1004.7 |
| 20260507060110 | 10 | 273 | 12.9 | 29.0 | 0.00 | 0.66 | 0.05 | 83 | 1004.8 |
| 20260507055404 | 10 | 268 | 14.5 | 27.4 | 0.00 | 0.66 | 0.05 | 83 | 1005.0 |
| 20260507054610 | 10 | 266 | 14.5 | 29.0 | 0.00 | 0.66 | 0.05 | 85 | 1005.2 |
| 20260507053709 | 11 | 270 | 11.3 | 24.1 | 0.00 | 0.66 | 0.05 | 86 | 1004.9 |
| 20260507052704 | 11 | 273 | 12.9 | 24.1 | 0.00 | 0.66 | 0.05 | 86 | 1004.9 |
| 20260507051803 | 11 | 261 | 11.3 | 20.9 | 0.00 | 0.66 | 0.05 | 89 | 1005.3 |
| 20260507050903 | 11 | 276 | 9.7 | 19.3 | 0.03 | 0.66 | 0.05 | 90 | 1005.0 |
| 20260507050110 | 11 | 268 | 11.3 | 22.5 | 0.05 | 0.66 | 0.05 | 90 | 1005.2 |
| 20260507045403 | 11 | 273 | 9.7 | 20.9 | 0.05 | 0.66 | 0.05 | 90 | 1005.2 |
| 20260507044503 | 12 | 294 | 9.7 | 25.7 | 0.05 | 0.66 | 0.05 | 90 | 1005.0 |
| 20260507043603 | 12 | 284 | 8.0 | 22.5 | 0.05 | 0.66 | 0.05 | 91 | 1004.9 |
| 20260507042703 | 12 | 268 | 14.5 | 25.7 | 0.05 | 0.66 | 0.05 | 90 | 1004.8 |
| 20260507041803 | 13 | 261 | 12.9 | 22.5 | 0.05 | 0.66 | 0.05 | 90 | 1005.0 |
| 20260507040903 | 13 | 264 | 11.3 | 29.0 | 0.03 | 0.64 | 0.03 | 90 | 1005.0 |
| 20260507040004 | 13 | 255 | 6.4 | 16.1 | 0.00 | 0.61 | 0.00 | 92 | 1004.9 |
| 20260507035404 | 13 | 248 | 6.4 | 14.5 | 0.00 | 0.61 | 0.61 | 92 | 1004.6 |
| 20260507034504 | 13 | 245 | 8.0 | 16.1 | 0.00 | 0.61 | 0.61 | 92 | 1004.5 |
| 20260507033603 | 14 | 250 | 9.7 | 19.3 | 0.00 | 0.61 | 0.61 | 93 | 1004.5 |
| 20260507032703 | 14 | 253 | 8.0 | 19.3 | 0.00 | 0.61 | 0.61 | 94 | 1004.3 |
| 20260507031804 | 14 | 219 | 6.4 | 19.3 | 0.00 | 0.61 | 0.61 | 94 | 1004.0 |
| 20260507030903 | 14 | 203 | 8.0 | 17.7 | 0.00 | 0.61 | 0.61 | 93 | 1003.8 |
| 20260507030003 | 14 | 190 | 9.7 | 19.3 | 0.00 | 0.61 | 0.61 | 93 | 1003.7 |
| 20260507025404 | 14 | 192 | 8.0 | 29.0 | 0.00 | 0.61 | 0.61 | 93 | 1003.8 |
| 20260507024503 | 14 | 187 | 9.7 | 24.1 | 0.00 | 0.61 | 0.61 | 93 | 1003.8 |
| 20260507023604 | 14 | 185 | 9.7 | 30.6 | 0.00 | 0.61 | 0.61 | 93 | 1003.9 |
| 20260507022703 | 14 | 185 | 9.7 | 19.3 | 0.00 | 0.61 | 0.61 | 93 | 1003.8 |
| 20260507021803 | 14 | 182 | 11.3 | 20.9 | 0.00 | 0.61 | 0.61 | 93 | 1003.7 |
| 20260507020904 | 14 | 178 | 9.7 | 20.9 | 0.00 | 0.61 | 0.61 | 93 | 1003.6 |
| 20260507020003 | 14 | 179 | 9.7 | 27.4 | 0.00 | 0.61 | 0.61 | 93 | 1003.9 |
| 20260507015403 | 14 | 184 | 9.7 | 27.4 | 0.00 | 0.61 | 0.61 | 93 | 1003.9 |
| 20260507014503 | 14 | 183 | 9.7 | 19.3 | 0.00 | 0.61 | 0.61 | 93 | 1004.0 |
| 20260507013604 | 14 | 180 | 9.7 | 30.6 | 0.00 | 0.61 | 0.61 | 93 | 1003.9 |
| 20260507012703 | 14 | 182 | 9.7 | 25.7 | 0.00 | 0.61 | 0.61 | 93 | 1004.0 |
| 20260507011803 | 14 | 180 | 9.7 | 25.7 | 0.00 | 0.61 | 0.61 | 93 | 1004.0 |
| 20260507011009 | 14 | 183 | 9.7 | 25.7 | 0.00 | 0.61 | 0.61 | 93 | 1004.0 |
| 20260507010003 | 14 | 180 | 12.9 | 24.1 | 0.00 | 0.61 | 0.61 | 93 | 1004.2 |
| 20260507005509 | 14 | 174 | 11.3 | 30.6 | 0.00 | 0.61 | 0.61 | 93 | 1004.0 |
| 20260507004504 | 14 | 174 | 12.9 | 27.4 | 0.00 | 0.61 | 0.61 | 93 | 1004.1 |
| 20260507003604 | 14 | 175 | 12.9 | 27.4 | 0.00 | 0.61 | 0.61 | 93 | 1004.0 |
| 20260507002703 | 14 | 176 | 14.5 | 27.4 | 0.03 | 0.61 | 0.61 | 93 | 1004.0 |
| 20260507001909 | 14 | 175 | 12.9 | 27.4 | 0.08 | 0.61 | 0.61 | 94 | 1003.9 |
| 20260507000903 | 14 | 185 | 9.7 | 24.1 | 0.13 | 0.61 | 0.61 | 94 | 1003.8 |
| 20260507000003 | 14 | 168 | 9.7 | 22.5 | 0.15 | 0.61 | 0.61 | 94 | 1003.7 |
| 20260506235404 | 14 | 169 | 9.7 | 20.9 | 0.15 | 0.61 | 0.61 | 94 | 1003.8 |
| 20260506234503 | 14 | 172 | 9.7 | 20.9 | 0.18 | 0.61 | 0.61 | 93 | 1003.7 |
| 20260506233604 | 14 | 172 | 11.3 | 24.1 | 0.20 | 0.61 | 0.61 | 93 | 1003.7 |
| 20260506232703 | 14 | 171 | 11.3 | 25.7 | 0.20 | 0.58 | 0.58 | 93 | 1003.8 |
| 20260506231804 | 14 | 171 | 9.7 | 20.9 | 0.15 | 0.51 | 0.51 | 93 | 1003.8 |
| 20260506230903 | 15 | 170 | 9.7 | 27.4 | 0.13 | 0.48 | 0.48 | 93 | 1003.9 |
| 20260506230004 | 15 | 174 | 11.3 | 20.9 | 0.10 | 0.46 | 0.46 | 93 | 1004.2 |
| 20260506225408 | 15 | 172 | 11.3 | 22.5 | 0.10 | 0.46 | 0.46 | 92 | 1004.1 |
| 20260506224609 | 15 | 172 | 11.3 | 24.1 | 0.08 | 0.43 | 0.43 | 92 | 1004.1 |
| 20260506223603 | 15 | 170 | 9.7 | 24.1 | 0.05 | 0.41 | 0.41 | 92 | 1004.2 |
| 20260506222703 | 15 | 166 | 9.7 | 20.9 | 0.05 | 0.38 | 0.38 | 92 | 1004.2 |
| 20260506221804 | 15 | 172 | 9.7 | 27.4 | 0.03 | 0.36 | 0.36 | 92 | 1004.2 |
| 20260506221010 | 15 | 172 | 11.3 | 29.0 | 0.05 | 0.36 | 0.36 | 92 | 1004.3 |
| 20260506220003 | 15 | 164 | 9.7 | 22.5 | 0.08 | 0.36 | 0.36 | 92 | 1004.4 |
| 20260506215403 | 15 | 163 | 6.4 | 17.7 | 0.10 | 0.36 | 0.36 | 92 | 1004.4 |
| 20260506214503 | 15 | 159 | 8.0 | 22.5 | 0.13 | 0.36 | 0.36 | 92 | 1004.4 |
| 20260506213604 | 15 | 159 | 6.4 | 17.7 | 0.15 | 0.36 | 0.36 | 92 | 1004.6 |
| 20260506212809 | 15 | 166 | 6.4 | 17.7 | 0.15 | 0.33 | 0.33 | 92 | 1004.8 |
| 20260506211803 | 15 | 168 | 8.0 | 20.9 | 0.20 | 0.33 | 0.33 | 91 | 1004.8 |
| 20260506210903 | 15 | 160 | 8.0 | 19.3 | 0.20 | 0.30 | 0.30 | 91 | 1005.0 |
| 20260506210003 | 15 | 166 | 9.7 | 22.5 | 0.20 | 0.28 | 0.28 | 90 | 1004.9 |
| 20260506205509 | 15 | 164 | 11.3 | 24.1 | 0.18 | 0.25 | 0.25 | 90 | 1005.0 |
| 20260506204503 | 15 | 169 | 9.7 | 22.5 | 0.18 | 0.23 | 0.23 | 89 | 1005.1 |
| 20260506203603 | 16 | 159 | 6.4 | 17.7 | 0.15 | 0.20 | 0.20 | 89 | 1005.0 |
| 20260506202704 | 16 | 167 | 9.7 | 17.7 | 0.15 | 0.18 | 0.18 | 88 | 1004.9 |
| 20260506201804 | 16 | 175 | 9.7 | 17.7 | 0.13 | 0.13 | 0.13 | 86 | 1005.0 |
| 20260506200904 | 16 | 177 | 11.3 | 27.4 | 0.10 | 0.10 | 0.10 | 85 | 1004.9 |
| 20260506200004 | 16 | 174 | 9.7 | 27.4 | 0.08 | 0.08 | 0.08 | 84 | 1004.9 |
| 20260506195403 | 16 | 172 | 8.0 | 22.5 | 0.08 | 0.08 | 0.08 | 84 | 1004.9 |
| 20260506194503 | 17 | 171 | 9.7 | 19.3 | 0.05 | 0.05 | 0.05 | 82 | 1004.8 |
| 20260506193603 | 17 | 167 | 9.7 | 30.6 | 0.05 | 0.05 | 0.05 | 81 | 1004.9 |
| 20260506192810 | 17 | 172 | 8.0 | 17.7 | 0.03 | 0.03 | 0.03 | 79 | 1005.0 |
| 20260506191910 | 18 | 174 | 11.3 | 24.1 | 0.03 | 0.03 | 0.03 | 76 | 1005.1 |
| 20260506190904 | 18 | 175 | 12.9 | 30.6 | 0.00 | 0.00 | 0.00 | 72 | 1005.0 |
| 20260506190109 | 20 | 182 | 9.7 | 24.1 | 0.00 | 0.00 | 0.00 | 69 | 1005.0 |
| 20260506185403 | 20 | 194 | 11.3 | 35.4 | 0.00 | 0.00 | 0.00 | 66 | 1005.0 |
| 20260506184503 | 20 | 182 | 11.3 | 41.8 | 0.00 | 0.00 | 0.00 | 65 | 1004.9 |
| 20260506183603 | 20 | 177 | 20.9 | 53.1 | 0.00 | 0.00 | 0.00 | 63 | 1004.9 |
| 20260506182704 | 21 | 178 | 19.3 | 46.7 | 0.00 | 0.00 | 0.00 | 60 | 1005.0 |
| 20260506181804 | 21 | 166 | 12.9 | 27.4 | 0.00 | 0.00 | 0.00 | 61 | 1004.9 |
| 20260506180903 | 21 | 173 | 14.5 | 43.5 | 0.00 | 0.00 | 0.00 | 60 | 1005.0 |
| 20260506180109 | 21 | 175 | 17.7 | 43.5 | 0.00 | 0.00 | 0.00 | 60 | 1005.1 |
| 20260506175404 | 21 | 167 | 16.1 | 37.0 | 0.00 | 0.00 | 0.00 | 60 | 1005.2 |
| 20260506174610 | 22 | 171 | 16.1 | 32.2 | 0.00 | 0.00 | 0.00 | 60 | 1005.3 |
| 20260506173603 | 22 | 164 | 17.7 | 40.2 | 0.00 | 0.00 | 0.00 | 60 | 1005.2 |
| 20260506172703 | 22 | 167 | 16.1 | 33.8 | 0.00 | 0.00 | 0.00 | 59 | 1005.1 |
| 20260506171803 | 22 | 162 | 14.5 | 41.8 | 0.00 | 0.00 | 0.00 | 60 | 1005.3 |
| 20260506170903 | 21 | 160 | 19.3 | 41.8 | 0.00 | 0.00 | 0.00 | 60 | 1005.5 |
| 20260506170109 | 22 | 175 | 12.9 | 30.6 | 0.00 | 0.00 | 0.00 | 60 | 1005.6 |
| 20260506165403 | 21 | 177 | 14.5 | 30.6 | 0.00 | 0.00 | 0.00 | 60 | 1005.7 |
| 20260506164508 | 21 | 181 | 19.3 | 46.7 | 0.00 | 0.00 | 0.00 | 59 | 1005.7 |
| 20260506163603 | 21 | 173 | 19.3 | 43.5 | 0.00 | 0.00 | 0.00 | 59 | 1005.9 |
| 20260506162703 | 21 | 173 | 14.5 | 32.2 | 0.00 | 0.00 | 0.00 | 59 | 1005.9 |
| 20260506161804 | 21 | 166 | 14.5 | 33.8 | 0.00 | 0.00 | 0.00 | 61 | 1006.2 |
| 20260506160904 | 21 | 170 | 12.9 | 25.7 | 0.00 | 0.00 | 0.00 | 62 | 1006.4 |
| 20260506160004 | 21 | 171 | 11.3 | 29.0 | 0.00 | 0.00 | 0.00 | 63 | 1006.5 |
| 20260506155404 | 21 | 171 | 9.7 | 20.9 | 0.00 | 0.00 | 0.00 | 63 | 1006.6 |
| 20260506154503 | 21 | 176 | 12.9 | 33.8 | 0.00 | 0.00 | 0.00 | 63 | 1006.8 |
| 20260506153710 | 21 | 170 | 12.9 | 33.8 | 0.00 | 0.00 | 0.00 | 65 | 1007.1 |
| 20260506152704 | 21 | 166 | 11.3 | 25.7 | 0.00 | 0.00 | 0.00 | 66 | 1007.1 |
| 20260506151804 | 20 | 162 | 12.9 | 27.4 | 0.00 | 0.00 | 0.00 | 66 | 1007.2 |
| 20260506150903 | 20 | 165 | 9.7 | 20.9 | 0.00 | 0.00 | 0.00 | 67 | 1007.2 |
| 20260506150005 | 20 | 172 | 12.9 | 30.6 | 0.00 | 0.00 | 0.00 | 68 | 1007.4 |
| 20260506145509 | 20 | 175 | 16.1 | 30.6 | 0.00 | 0.00 | 0.00 | 67 | 1007.6 |
| 20260506144504 | 20 | 170 | 16.1 | 40.2 | 0.00 | 0.00 | 0.00 | 67 | 1007.3 |
| 20260506143603 | 20 | 169 | 12.9 | 37.0 | 0.00 | 0.00 | 0.00 | 68 | 1007.2 |
| 20260506142704 | 20 | 174 | 16.1 | 32.2 | 0.00 | 0.00 | 0.00 | 70 | 1007.2 |
| 20260506141804 | 19 | 175 | 14.5 | 32.2 | 0.00 | 0.00 | 0.00 | 70 | 1007.0 |
| 20260506140903 | 18 | 175 | 11.3 | 29.0 | 0.00 | 0.00 | 0.00 | 72 | 1007.4 |
| 20260506140003 | 18 | 176 | 12.9 | 29.0 | 0.00 | 0.00 | 0.00 | 72 | 1007.3 |
| 20260506135403 | 18 | 175 | 16.1 | 30.6 | 0.00 | 0.00 | 0.00 | 72 | 1007.4 |
| 20260506134610 | 18 | 170 | 16.1 | 38.6 | 0.00 | 0.00 | 0.00 | 72 | 1007.4 |
| 20260506133603 | 18 | 172 | 12.9 | 33.8 | 0.00 | 0.00 | 0.00 | 74 | 1007.8 |
| 20260506132704 | 17 | 173 | 16.1 | 35.4 | 0.00 | 0.00 | 0.00 | 73 | 1007.9 |
| 20260506131803 | 18 | 172 | 12.9 | 29.0 | 0.00 | 0.00 | 0.00 | 73 | 1007.8 |
| 20260506130903 | 17 | 175 | 12.9 | 24.1 | 0.00 | 0.00 | 0.00 | 74 | 1007.7 |
| 20260506130005 | 17 | 176 | 16.1 | 35.4 | 0.00 | 0.00 | 0.00 | 74 | 1007.8 |
| 20260506125403 | 17 | 167 | 17.7 | 35.4 | 0.00 | 0.00 | 0.00 | 74 | 1007.8 |
| 20260506124504 | 17 | 167 | 16.1 | 30.6 | 0.00 | 0.00 | 0.00 | 74 | 1007.6 |
| 20260506123603 | 17 | 175 | 12.9 | 22.5 | 0.00 | 0.00 | 0.00 | 76 | 1007.8 |
| 20260506122704 | 17 | 175 | 12.9 | 25.7 | 0.00 | 0.00 | 0.00 | 75 | 1008.0 |
| 20260506121804 | 17 | 168 | 16.1 | 41.8 | 0.00 | 0.00 | 0.00 | 75 | 1007.8 |
| 20260506121009 | 16 | 167 | 12.9 | 27.4 | 0.00 | 0.00 | 0.00 | 77 | 1007.8 |
| 20260506120003 | 16 | 166 | 12.9 | 27.4 | 0.00 | 0.00 | 0.00 | 77 | 1008.1 |
| 20260506115403 | 16 | 169 | 12.9 | 22.5 | 0.00 | 0.00 | 0.00 | 77 | 1008.0 |
| 20260506114504 | 16 | 170 | 12.9 | 22.5 | 0.00 | 0.00 | 0.00 | 77 | 1008.1 |
| 20260506113603 | 16 | 179 | 11.3 | 30.6 | 0.00 | 0.00 | 0.00 | 78 | 1008.3 |
| 20260506112704 | 16 | 179 | 8.0 | 24.1 | 0.00 | 0.00 | 0.00 | 78 | 1008.3 |
| 20260506111803 | 16 | 168 | 11.3 | 25.7 | 0.00 | 0.00 | 0.00 | 78 | 1008.2 |
| 20260506110904 | 16 | 174 | 9.7 | 20.9 | 0.00 | 0.00 | 0.00 | 79 | 1008.2 |
| 20260506110004 | 15 | 168 | 11.3 | 24.1 | 0.00 | 0.00 | 0.00 | 79 | 1008.2 |
| 20260506105403 | 15 | 170 | 11.3 | 27.4 | 0.00 | 0.00 | 0.00 | 78 | 1008.3 |
| 20260506104504 | 15 | 171 | 11.3 | 27.4 | 0.00 | 0.00 | 0.00 | 78 | 1008.2 |
| 20260506103603 | 15 | 168 | 11.3 | 22.5 | 0.00 | 0.00 | 0.00 | 78 | 1008.1 |
| 20260506102703 | 15 | 171 | 11.3 | 22.5 | 0.00 | 0.00 | 0.00 | 78 | 1008.2 |
| 20260506101803 | 15 | 162 | 9.7 | 20.9 | 0.00 | 0.00 | 0.00 | 78 | 1008.2 |